Spring Creek, South Dakota
Current Conditions -  °F | °C
As of 3:52 PM on Wednesday 17 Dec 2014 (Local Time) from KVTN Reporting Station
Haze Haze  
Wind Chill: 11°   Ceiling: 800
Heat Index: 22°   Visibility: 6mi
Dew Point: 19°   Wind: 10mph
Humidity: 89%   Direction: 170°S
Pressure: 30.08"   Gusts: NA
Location:  43.1381°N, 100.965°W
Report Text: KVTN 172152Z AUTO 17009KT 6SM BR OVC008 M06/M07 A3008 RMK AO2 SLP225 T10561072
Loading
Personal Weather Stations






























Interactive Weather Map New forecast layout! Learn more

10-Day Weather Forecast

Advertisements
Track Severe Weather on mobile